createdAt,value
2022-09-15T00:02:11.323Z,7.60
2022-09-15T00:04:41.876Z,7.90
2022-09-15T00:07:12.397Z,8.40
2022-09-15T00:09:42.921Z,7.90
2022-09-15T00:12:13.390Z,7.70
2022-09-15T00:14:44.095Z,11.20
2022-09-15T00:17:14.461Z,8.10
2022-09-15T00:19:45.101Z,10.70
2022-09-15T00:22:17.102Z,15.90
2022-09-15T00:24:49.557Z,12.40
2022-09-15T00:27:20.010Z,10.60
2022-09-15T00:29:50.426Z,10.30
2022-09-15T00:32:23.219Z,10.00
2022-09-15T00:34:53.834Z,10.80
2022-09-15T00:37:24.577Z,10.70
2022-09-15T00:39:55.813Z,10.90
2022-09-15T00:42:26.243Z,13.70
2022-09-15T00:44:58.896Z,8.80
2022-09-15T00:47:31.086Z,9.70
2022-09-15T00:50:04.043Z,9.20
2022-09-15T00:52:36.857Z,6.60
2022-09-15T00:55:09.845Z,9.10
2022-09-15T01:00:11.762Z,9.20
2022-09-15T01:05:13.039Z,12.10
2022-09-15T01:07:44.630Z,9.80
2022-09-15T01:10:17.228Z,9.40
2022-09-15T01:12:48.407Z,10.60
2022-09-15T01:15:19.991Z,9.80
2022-09-15T01:17:55.911Z,10.00
2022-09-15T01:20:43.399Z,9.30
2022-09-15T01:23:31.807Z,10.00
2022-09-15T01:26:17.278Z,7.90
2022-09-15T01:28:59.262Z,8.30
2022-09-15T01:31:31.169Z,8.20
2022-09-15T01:34:03.946Z,9.00
2022-09-15T01:39:06.642Z,9.10
2022-09-15T01:41:39.260Z,15.30
2022-09-15T01:44:11.285Z,11.00
2022-09-15T01:46:47.384Z,12.60
2022-09-15T01:49:19.316Z,9.20
2022-09-15T01:51:50.561Z,11.50
2022-09-15T01:54:22.663Z,12.80
2022-09-15T01:56:53.298Z,12.50
2022-09-15T01:59:24.031Z,10.00
2022-09-15T02:01:59.245Z,9.80
2022-09-15T02:04:32.307Z,8.60
2022-09-15T02:09:34.895Z,10.10
2022-09-15T02:12:09.263Z,9.70
2022-09-15T02:14:44.049Z,11.00
2022-09-15T02:17:16.419Z,10.60
2022-09-15T02:19:51.785Z,11.50
2022-09-15T02:22:27.302Z,10.40
2022-09-15T02:25:03.228Z,9.10
2022-09-15T02:27:35.409Z,12.80
2022-09-15T02:30:07.214Z,10.30
2022-09-15T02:32:38.862Z,9.20
2022-09-15T02:35:11.007Z,9.40
2022-09-15T02:37:41.676Z,8.70
2022-09-15T02:40:12.611Z,9.90
2022-09-15T02:42:52.812Z,10.00
2022-09-15T02:45:24.843Z,12.40
2022-09-15T02:47:56.340Z,10.10
2022-09-15T02:50:27.657Z,10.20
2022-09-15T02:52:58.698Z,12.10
2022-09-15T02:55:29.428Z,10.50
2022-09-15T02:58:00.820Z,10.30
2022-09-15T03:00:31.768Z,9.10
2022-09-15T03:03:02.287Z,10.50
2022-09-15T03:05:32.919Z,9.10
2022-09-15T03:08:04.186Z,12.60
2022-09-15T03:10:34.668Z,11.90
2022-09-15T03:13:05.005Z,11.60
2022-09-15T03:15:35.636Z,10.40
2022-09-15T03:18:06.471Z,10.10
2022-09-15T03:20:37.722Z,13.20
2022-09-15T03:23:08.454Z,11.30
2022-09-15T03:25:39.113Z,12.00
2022-09-15T03:28:09.402Z,9.90
2022-09-15T03:30:40.135Z,10.50
2022-09-15T03:33:10.466Z,10.20
2022-09-15T03:35:41.086Z,10.80
2022-09-15T03:38:11.722Z,11.40
2022-09-15T03:40:43.480Z,10.80
2022-09-15T03:43:18.555Z,10.20
2022-09-15T03:45:49.400Z,10.40
2022-09-15T03:50:53.238Z,12.00
2022-09-15T03:53:23.805Z,9.90
2022-09-15T03:55:54.630Z,11.20
2022-09-15T03:58:28.897Z,12.20
2022-09-15T04:01:01.197Z,11.20
2022-09-15T04:03:31.950Z,9.70
2022-09-15T04:06:03.813Z,10.40
2022-09-15T04:08:34.444Z,12.10
2022-09-15T04:11:07.103Z,10.00
2022-09-15T04:13:37.651Z,13.10
2022-09-15T04:16:09.821Z,14.60
2022-09-15T04:18:40.664Z,12.10
2022-09-15T04:21:13.998Z,11.20
2022-09-15T04:23:44.714Z,13.70
2022-09-15T04:26:18.941Z,9.80
2022-09-15T04:28:49.466Z,9.00
2022-09-15T04:31:20.638Z,11.40
2022-09-15T04:33:53.148Z,11.70
2022-09-15T04:36:25.150Z,10.50
2022-09-15T04:38:56.707Z,9.80
2022-09-15T04:41:27.758Z,9.70
2022-09-15T04:43:58.949Z,14.70
2022-09-15T04:46:30.040Z,9.70
2022-09-15T04:49:00.612Z,10.60
2022-09-15T04:51:31.344Z,10.70
2022-09-15T04:54:01.673Z,10.90
2022-09-15T04:56:32.544Z,11.40
2022-09-15T04:59:04.277Z,11.30
2022-09-15T05:01:36.372Z,14.00
2022-09-15T05:04:06.751Z,10.40
2022-09-15T05:06:37.996Z,11.90
2022-09-15T05:09:10.606Z,14.70
2022-09-15T05:11:41.571Z,11.00
2022-09-15T05:14:12.825Z,12.20
2022-09-15T05:16:43.673Z,13.20
2022-09-15T05:19:14.116Z,13.00
2022-09-15T05:21:44.890Z,11.40
2022-09-15T05:24:15.790Z,10.90
2022-09-15T05:26:46.726Z,10.80
2022-09-15T05:29:17.354Z,10.40
2022-09-15T05:31:47.954Z,11.40
2022-09-15T05:34:18.624Z,9.50
2022-09-15T05:36:49.150Z,13.50
2022-09-15T05:39:21.272Z,13.10
2022-09-15T05:41:51.649Z,12.80
2022-09-15T05:44:22.343Z,9.80
2022-09-15T05:46:53.767Z,12.50
2022-09-15T05:49:24.355Z,12.10
2022-09-15T05:51:54.876Z,13.20
2022-09-15T05:54:25.113Z,10.40
2022-09-15T05:56:55.935Z,9.30
2022-09-15T05:59:26.166Z,10.30
2022-09-15T06:01:57.055Z,9.80
2022-09-15T06:04:27.422Z,10.90
2022-09-15T06:06:58.268Z,9.40
2022-09-15T06:09:28.980Z,10.40
2022-09-15T06:11:59.818Z,12.00
2022-09-15T06:14:30.158Z,10.70
2022-09-15T06:17:00.774Z,10.10
2022-09-15T06:19:31.103Z,8.60
2022-09-15T06:22:01.932Z,10.00
2022-09-15T06:24:32.459Z,9.30
2022-09-15T06:27:03.012Z,13.70
2022-09-15T06:29:33.638Z,10.50
2022-09-15T06:32:05.890Z,9.60
2022-09-15T06:34:36.520Z,11.00
2022-09-15T06:37:08.170Z,8.50
2022-09-15T06:39:39.053Z,9.70
2022-09-15T06:42:13.692Z,8.90
2022-09-15T06:44:44.949Z,10.40
2022-09-15T06:47:17.098Z,9.10
2022-09-15T06:49:47.376Z,11.30
2022-09-15T06:52:18.205Z,14.10
2022-09-15T06:54:49.394Z,10.60
2022-09-15T06:57:20.228Z,8.20
2022-09-15T06:59:50.451Z,7.30
2022-09-15T07:02:21.284Z,7.10
2022-09-15T07:04:51.942Z,9.50
2022-09-15T07:07:22.501Z,10.10
2022-09-15T07:09:53.034Z,7.30
2022-09-15T07:12:24.086Z,6.10
2022-09-15T07:14:54.806Z,8.30
2022-09-15T07:17:26.670Z,8.90
2022-09-15T07:19:57.649Z,9.20
2022-09-15T07:22:28.236Z,7.10
2022-09-15T07:24:58.666Z,6.50
2022-09-15T07:27:31.951Z,8.60
2022-09-15T07:30:02.686Z,5.50
2022-09-15T07:32:33.014Z,6.60
2022-09-15T07:35:03.805Z,4.70
2022-09-15T07:37:34.533Z,5.30
2022-09-15T07:40:05.880Z,4.90
2022-09-15T07:42:36.386Z,4.70
2022-09-15T07:45:08.159Z,4.80
2022-09-15T07:47:38.740Z,3.90
2022-09-15T07:50:09.537Z,2.80
2022-09-15T07:52:39.962Z,2.70
2022-09-15T07:55:10.885Z,4.10
2022-09-15T07:57:41.537Z,3.70
2022-09-15T08:00:12.793Z,5.90
2022-09-15T08:02:43.444Z,3.90
2022-09-15T08:05:13.868Z,4.00
2022-09-15T08:07:44.505Z,3.10
2022-09-15T08:10:15.080Z,2.90
2022-09-15T08:12:45.661Z,2.90
2022-09-15T08:15:16.286Z,3.00
2022-09-15T08:17:47.915Z,3.60
2022-09-15T08:20:18.472Z,3.90
2022-09-15T08:22:48.843Z,4.50
2022-09-15T08:25:19.802Z,2.50
2022-09-15T08:27:51.370Z,5.30
2022-09-15T08:30:22.730Z,3.30
2022-09-15T08:32:53.371Z,4.20
2022-09-15T08:35:23.999Z,3.20
2022-09-15T08:37:56.160Z,2.90
2022-09-15T08:40:27.975Z,3.00
2022-09-15T08:43:00.700Z,2.80
2022-09-15T08:45:34.611Z,6.20
2022-09-15T08:48:08.624Z,9.50
2022-09-15T08:53:13.403Z,5.50
2022-09-15T08:55:49.611Z,3.00
2022-09-15T08:58:20.970Z,3.90
2022-09-15T09:00:53.340Z,3.60
2022-09-15T09:03:43.330Z,3.70
2022-09-15T09:06:17.594Z,5.10
2022-09-15T09:09:01.614Z,4.00
2022-09-15T09:11:40.056Z,5.90
2022-09-15T09:14:14.469Z,3.40
2022-09-15T09:16:50.280Z,3.50
2022-09-15T09:19:32.493Z,3.60
2022-09-15T09:22:04.371Z,3.90
2022-09-15T09:24:38.037Z,4.20
2022-09-15T09:27:11.904Z,4.00
2022-09-15T09:29:44.971Z,3.60
2022-09-15T09:34:47.238Z,4.60
2022-09-15T09:37:18.476Z,3.30
2022-09-15T09:39:49.129Z,3.80
2022-09-15T09:42:20.257Z,5.70
2022-09-15T09:44:51.307Z,3.10
2022-09-15T09:47:22.522Z,3.70
2022-09-15T09:49:52.951Z,3.20
2022-09-15T09:52:35.279Z,5.80
2022-09-15T09:55:24.267Z,4.20
2022-09-15T09:57:55.047Z,3.80
2022-09-15T10:00:36.219Z,5.40
2022-09-15T10:03:12.894Z,2.40
2022-09-15T10:05:44.136Z,3.20
2022-09-15T10:08:19.562Z,3.70
2022-09-15T10:10:54.618Z,3.00
2022-09-15T10:13:25.130Z,3.80
2022-09-15T10:15:56.453Z,3.10
2022-09-15T10:18:30.200Z,3.60
2022-09-15T10:21:01.713Z,3.30
2022-09-15T10:23:33.503Z,5.90
2022-09-15T10:26:17.550Z,5.80
2022-09-15T10:39:07.633Z,4.20
2022-09-15T10:41:41.202Z,3.80
2022-09-15T10:44:27.434Z,3.90
2022-09-15T10:47:03.473Z,3.70
2022-09-15T10:49:40.308Z,3.40
2022-09-15T10:52:13.900Z,3.70
2022-09-15T10:54:57.480Z,5.10
2022-09-15T10:57:40.290Z,5.70
2022-09-15T11:00:13.237Z,4.70
2022-09-15T11:05:33.456Z,6.80
2022-09-15T11:08:14.653Z,4.50
2022-09-15T11:10:47.126Z,6.10
2022-09-15T11:13:20.593Z,6.20
2022-09-15T11:15:56.934Z,6.10
2022-09-15T11:18:37.343Z,4.30
2022-09-15T11:21:12.991Z,5.40
2022-09-15T11:23:46.287Z,7.90
2022-09-15T11:26:21.216Z,4.90
2022-09-15T11:28:54.782Z,4.40
2022-09-15T11:33:59.874Z,5.70
2022-09-15T11:36:32.763Z,5.30
2022-09-15T11:39:07.944Z,5.90
2022-09-15T11:41:41.705Z,6.10
2022-09-15T11:44:19.487Z,5.60
2022-09-15T11:46:57.839Z,5.00
2022-09-15T11:49:29.923Z,5.10
2022-09-15T11:52:04.649Z,5.10
2022-09-15T11:54:38.716Z,8.80
2022-09-15T11:57:16.742Z,5.20
2022-09-15T11:59:51.555Z,6.60
2022-09-15T12:02:25.536Z,6.50
2022-09-15T12:05:03.757Z,6.00
2022-09-15T12:07:37.459Z,5.20
2022-09-15T12:10:14.751Z,7.40
2022-09-15T12:12:46.715Z,7.20
2022-09-15T12:15:18.738Z,5.80
2022-09-15T12:17:53.651Z,6.10
2022-09-15T12:20:26.485Z,5.10
2022-09-15T12:25:28.363Z,6.00
2022-09-15T12:28:16.209Z,4.80
2022-09-15T12:30:47.442Z,4.90
2022-09-15T12:33:34.558Z,7.10
2022-09-15T12:36:19.009Z,4.70
2022-09-15T12:38:50.763Z,6.60
2022-09-15T12:41:21.713Z,6.80
2022-09-15T12:43:54.866Z,5.10
2022-09-15T12:48:58.152Z,4.60
2022-09-15T12:51:29.350Z,5.30
2022-09-15T12:54:03.207Z,4.20
2022-09-15T12:56:34.632Z,5.40
2022-09-15T12:59:07.160Z,5.30
2022-09-15T13:01:49.783Z,4.50
2022-09-15T13:04:28.725Z,5.00
2022-09-15T13:07:16.455Z,4.40
2022-09-15T13:09:57.325Z,5.60
2022-09-15T13:12:30.720Z,4.80
2022-09-15T13:15:03.708Z,4.50
2022-09-15T13:17:34.913Z,5.70
2022-09-15T13:20:13.530Z,6.30
2022-09-15T13:22:48.421Z,4.20
2022-09-15T13:25:22.770Z,4.00
2022-09-15T13:27:55.902Z,4.70
2022-09-15T13:30:32.421Z,5.10
2022-09-15T13:33:06.398Z,4.70
2022-09-15T13:35:54.192Z,4.30
2022-09-15T13:38:46.926Z,5.60
2022-09-15T13:41:44.508Z,4.60
2022-09-15T13:44:31.460Z,5.30
2022-09-15T13:47:10.062Z,4.50
2022-09-15T13:49:48.278Z,4.10
2022-09-15T13:52:33.744Z,4.40
2022-09-15T13:55:11.484Z,4.70
2022-09-15T14:00:35.461Z,5.30
2022-09-15T14:03:10.725Z,5.00
2022-09-15T14:05:41.301Z,4.60
2022-09-15T14:08:15.324Z,4.40
2022-09-15T14:10:48.255Z,4.40
2022-09-15T14:13:22.981Z,5.60
2022-09-15T14:15:59.286Z,5.80
2022-09-15T14:18:30.349Z,4.00
2022-09-15T14:21:02.163Z,5.10
2022-09-15T14:23:33.341Z,4.30
2022-09-15T14:26:04.241Z,4.80
2022-09-15T14:28:35.522Z,4.50
2022-09-15T14:31:05.735Z,7.40
2022-09-15T14:33:38.472Z,4.90
2022-09-15T14:36:15.959Z,4.20
2022-09-15T14:39:03.190Z,4.60
2022-09-15T14:41:34.571Z,4.30
2022-09-15T14:45:53.030Z,6.10
2022-09-15T14:49:38.112Z,6.70
2022-09-15T14:52:17.239Z,7.40
2022-09-15T14:54:47.986Z,8.80
2022-09-15T14:57:20.602Z,6.00
2022-09-15T14:59:53.901Z,5.40
2022-09-15T15:02:28.439Z,6.80
2022-09-15T15:04:59.993Z,5.40
2022-09-15T15:07:33.276Z,5.20
2022-09-15T15:10:06.324Z,7.00
2022-09-15T15:12:38.626Z,5.20
2022-09-15T15:15:11.829Z,5.10
2022-09-15T15:17:43.892Z,5.50
2022-09-15T15:20:16.802Z,9.10
2022-09-15T15:22:47.738Z,6.00
2022-09-15T15:25:29.516Z,5.60
2022-09-15T15:28:00.574Z,6.50
2022-09-15T15:30:36.356Z,5.10
2022-09-15T15:33:07.915Z,6.90
2022-09-15T15:35:38.924Z,4.80
2022-09-15T15:38:14.882Z,5.20
2022-09-15T15:40:46.325Z,4.40
2022-09-15T15:43:22.481Z,6.50
2022-09-15T15:45:58.822Z,5.80
2022-09-15T15:48:34.023Z,6.50
2022-09-15T15:51:09.651Z,6.40
2022-09-15T15:53:40.361Z,7.80
2022-09-15T15:56:11.311Z,6.30
2022-09-15T15:58:42.142Z,5.60
2022-09-15T16:01:13.208Z,6.30
2022-09-15T16:03:43.603Z,7.20
2022-09-15T16:06:14.828Z,5.40
2022-09-15T16:08:46.096Z,5.60
2022-09-15T16:11:17.450Z,6.60
2022-09-15T16:13:48.483Z,6.80
2022-09-15T16:16:21.621Z,6.10
2022-09-15T16:21:22.014Z,8.30
2022-09-15T16:23:52.738Z,7.20
2022-09-15T16:26:24.836Z,7.90
2022-09-15T16:28:55.242Z,5.80
2022-09-15T16:31:26.424Z,6.00
2022-09-15T16:33:56.721Z,6.70
2022-09-15T16:36:28.052Z,8.00
2022-09-15T16:38:58.277Z,6.90
2022-09-15T16:41:29.724Z,6.40
2022-09-15T16:44:00.044Z,6.40
2022-09-15T16:46:32.734Z,7.70
2022-09-15T16:49:03.052Z,7.60
2022-09-15T16:51:33.985Z,7.90
2022-09-15T16:54:04.519Z,8.50
2022-09-15T16:56:35.348Z,8.80
2022-09-15T16:59:05.880Z,7.60
2022-09-15T17:01:36.502Z,6.70
2022-09-15T17:04:12.814Z,7.90
2022-09-15T17:06:43.503Z,8.30
2022-09-15T17:09:14.889Z,8.00
2022-09-15T17:11:45.435Z,10.00
2022-09-15T17:14:18.028Z,10.10
2022-09-15T17:16:53.194Z,7.60
2022-09-15T17:19:23.969Z,7.00
2022-09-15T17:21:54.798Z,13.20
2022-09-15T17:24:26.006Z,13.50
2022-09-15T17:26:56.949Z,13.10
2022-09-15T17:29:27.611Z,13.40
2022-09-15T17:31:58.115Z,13.20
2022-09-15T17:34:28.537Z,14.10
2022-09-15T17:36:59.958Z,13.80
2022-09-15T17:39:30.225Z,14.90
2022-09-15T17:44:37.746Z,14.70
2022-09-15T17:47:08.698Z,16.70
2022-09-15T17:49:39.379Z,12.60
2022-09-15T17:52:10.366Z,14.80
2022-09-15T17:54:41.160Z,14.90
2022-09-15T17:57:11.783Z,14.60
2022-09-15T17:59:42.208Z,16.20
2022-09-15T18:02:18.711Z,15.90
2022-09-15T18:04:49.532Z,15.50
2022-09-15T18:07:23.835Z,15.80
2022-09-15T18:09:55.998Z,15.10
2022-09-15T18:12:26.835Z,12.90
2022-09-15T18:14:57.469Z,13.40
2022-09-15T18:17:28.405Z,15.10
2022-09-15T18:19:58.825Z,14.00
2022-09-15T18:22:29.460Z,13.70
2022-09-15T18:25:00.194Z,19.60
2022-09-15T18:27:30.925Z,14.80
2022-09-15T18:30:01.578Z,13.10
2022-09-15T18:32:33.824Z,14.80
2022-09-15T18:35:04.677Z,14.50
2022-09-15T18:37:35.596Z,13.00
2022-09-15T18:40:08.763Z,9.70
2022-09-15T18:45:10.589Z,13.90
2022-09-15T18:47:42.942Z,9.70
2022-09-15T18:50:14.284Z,11.10
2022-09-15T18:52:44.915Z,11.20
2022-09-15T18:55:16.420Z,13.60
2022-09-15T18:57:47.912Z,12.30
2022-09-15T19:00:19.874Z,13.60
2022-09-15T19:02:50.763Z,16.10
2022-09-15T19:05:24.320Z,11.60
2022-09-15T19:07:55.597Z,16.50
2022-09-15T19:10:27.322Z,15.30
2022-09-15T19:12:57.947Z,14.70
2022-09-15T19:15:29.393Z,15.40
2022-09-15T19:17:59.948Z,18.90
2022-09-15T19:20:30.315Z,18.60
2022-09-15T19:23:01.086Z,17.40
2022-09-15T19:25:31.908Z,17.50
2022-09-15T19:28:05.423Z,16.60
2022-09-15T19:30:36.191Z,16.40
2022-09-15T19:33:07.190Z,18.30
2022-09-15T19:35:37.621Z,21.20
2022-09-15T19:38:08.055Z,19.10
2022-09-15T19:40:38.486Z,19.80
2022-09-15T19:43:10.836Z,20.40
2022-09-15T19:45:43.965Z,18.00
2022-09-15T19:48:14.560Z,18.80
2022-09-15T19:50:45.358Z,18.60
2022-09-15T19:53:15.924Z,18.80
2022-09-15T19:55:51.568Z,16.00
2022-09-15T19:58:21.996Z,18.50
2022-09-15T20:00:56.971Z,19.40
2022-09-15T20:03:29.498Z,16.90
2022-09-15T20:06:01.722Z,20.80
2022-09-15T20:08:36.440Z,20.40
2022-09-15T20:11:11.225Z,20.70
2022-09-15T20:13:43.911Z,16.80
2022-09-15T20:16:16.990Z,18.80
2022-09-15T20:18:50.091Z,19.20
2022-09-15T20:21:45.980Z,18.30
2022-09-15T20:24:18.134Z,19.70
2022-09-15T20:26:50.014Z,19.10
2022-09-15T20:29:21.517Z,18.30
2022-09-15T20:31:53.103Z,20.90
2022-09-15T20:34:26.558Z,20.00
2022-09-15T20:36:58.683Z,19.60
2022-09-15T20:39:30.156Z,22.70
2022-09-15T20:42:01.956Z,25.60
2022-09-15T20:44:33.594Z,20.50
2022-09-15T20:47:05.033Z,22.40
2022-09-15T20:49:36.460Z,21.10
2022-09-15T20:52:07.522Z,19.90
2022-09-15T20:54:38.402Z,21.70
2022-09-15T20:57:09.895Z,21.20
2022-09-15T20:59:41.510Z,21.50
2022-09-15T21:02:13.070Z,18.20
2022-09-15T21:04:44.236Z,21.60
2022-09-15T21:07:15.620Z,19.80
2022-09-15T21:09:46.724Z,21.00
2022-09-15T21:12:17.763Z,22.90
2022-09-15T21:14:48.472Z,22.70
2022-09-15T21:17:20.026Z,22.20
2022-09-15T21:19:50.642Z,19.90
2022-09-15T21:22:23.096Z,23.00
2022-09-15T21:24:54.396Z,25.60
2022-09-15T21:27:28.128Z,19.00
2022-09-15T21:29:59.386Z,20.50
2022-09-15T21:32:30.792Z,22.70
2022-09-15T21:35:01.561Z,21.10
2022-09-15T21:37:32.431Z,19.30
2022-09-15T21:40:03.908Z,19.10
2022-09-15T21:42:35.026Z,17.00
2022-09-15T21:45:07.111Z,17.70
2022-09-15T21:47:38.040Z,22.30
2022-09-15T21:50:09.663Z,19.40
2022-09-15T21:52:40.735Z,21.00
2022-09-15T21:55:12.082Z,16.90
2022-09-15T21:57:43.130Z,21.10
2022-09-15T22:00:15.196Z,19.60
2022-09-15T22:02:46.307Z,16.10
2022-09-15T22:05:17.187Z,17.80
2022-09-15T22:07:48.753Z,17.10
2022-09-15T22:10:19.678Z,26.70
2022-09-15T22:12:54.447Z,13.10
2022-09-15T22:15:26.167Z,17.50
2022-09-15T22:17:57.617Z,15.30
2022-09-15T22:20:28.955Z,17.50
2022-09-15T22:23:01.479Z,15.40
2022-09-15T22:25:32.181Z,16.40
2022-09-15T22:28:03.570Z,16.40
2022-09-15T22:30:34.461Z,15.50
2022-09-15T22:33:05.546Z,13.20
2022-09-15T22:35:36.302Z,16.90
2022-09-15T22:38:07.398Z,14.10
2022-09-15T22:40:38.343Z,13.90
2022-09-15T22:43:09.276Z,12.50
2022-09-15T22:45:40.384Z,15.30
2022-09-15T22:48:11.238Z,15.60
2022-09-15T22:50:44.818Z,16.10
2022-09-15T22:53:16.383Z,19.10
2022-09-15T22:55:47.260Z,13.00
2022-09-15T22:58:18.057Z,13.50
2022-09-15T23:00:48.980Z,15.30
2022-09-15T23:03:19.768Z,13.50
2022-09-15T23:05:57.623Z,15.10
2022-09-15T23:08:28.352Z,13.20
2022-09-15T23:11:03.536Z,13.20
2022-09-15T23:13:34.137Z,14.30
2022-09-15T23:16:06.134Z,13.80
2022-09-15T23:18:36.522Z,12.30
2022-09-15T23:21:08.320Z,11.90
2022-09-15T23:23:39.517Z,15.10
2022-09-15T23:26:11.646Z,13.70
2022-09-15T23:28:42.002Z,14.10
2022-09-15T23:31:13.446Z,16.40
2022-09-15T23:33:43.981Z,15.60
2022-09-15T23:36:16.063Z,15.80
2022-09-15T23:38:46.905Z,14.20
2022-09-15T23:41:18.233Z,14.20
2022-09-15T23:43:48.756Z,14.50
2022-09-15T23:46:20.215Z,16.20
2022-09-15T23:48:50.940Z,16.20
2022-09-15T23:51:22.496Z,13.80
2022-09-15T23:53:52.932Z,14.00
2022-09-15T23:56:23.909Z,15.80
2022-09-15T23:58:54.178Z,17.90
